sensor_id;sensor_type;location;lat;lon;timestamp;pressure;altitude;pressure_sealevel;temperature;humidity
61014;BME280;46899;47.542;19.082;2023-02-22T00:02:07;100440.87;;;8.00;100.00
61014;BME280;46899;47.542;19.082;2023-02-22T00:05:14;100440.22;;;7.90;100.00
61014;BME280;46899;47.542;19.082;2023-02-22T00:08:22;100438.78;;;7.79;100.00
61014;BME280;46899;47.542;19.082;2023-02-22T00:11:25;100434.47;;;7.78;100.00
61014;BME280;46899;47.542;19.082;2023-02-22T00:14:27;100431.22;;;7.68;100.00
61014;BME280;46899;47.542;19.082;2023-02-22T00:17:30;100431.25;;;7.67;100.00
61014;BME280;46899;47.542;19.082;2023-02-22T00:20:33;100432.31;;;7.58;100.00
61014;BME280;46899;47.542;19.082;2023-02-22T00:23:38;100437.59;;;7.53;100.00
61014;BME280;46899;47.542;19.082;2023-02-22T00:26:40;100451.47;;;7.51;100.00
61014;BME280;46899;47.542;19.082;2023-02-22T00:29:44;100438.41;;;7.55;100.00
61014;BME280;46899;47.542;19.082;2023-02-22T00:32:48;100441.84;;;7.56;100.00
61014;BME280;46899;47.542;19.082;2023-02-22T00:35:51;100439.00;;;7.68;100.00
61014;BME280;46899;47.542;19.082;2023-02-22T00:38:53;100436.28;;;7.74;100.00
61014;BME280;46899;47.542;19.082;2023-02-22T00:41:57;100451.31;;;7.57;100.00
61014;BME280;46899;47.542;19.082;2023-02-22T00:44:59;100450.81;;;7.41;100.00
61014;BME280;46899;47.542;19.082;2023-02-22T00:48:02;100453.84;;;7.19;100.00
61014;BME280;46899;47.542;19.082;2023-02-22T00:51:05;100459.88;;;7.19;100.00
61014;BME280;46899;47.542;19.082;2023-02-22T00:54:08;100459.25;;;7.07;100.00
61014;BME280;46899;47.542;19.082;2023-02-22T00:57:11;100461.09;;;7.02;100.00
61014;BME280;46899;47.542;19.082;2023-02-22T01:00:16;100457.00;;;6.88;100.00
61014;BME280;46899;47.542;19.082;2023-02-22T01:03:20;100450.37;;;6.74;100.00
61014;BME280;46899;47.542;19.082;2023-02-22T01:06:23;100450.50;;;6.68;100.00
61014;BME280;46899;47.542;19.082;2023-02-22T01:09:26;100445.41;;;6.63;100.00
61014;BME280;46899;47.542;19.082;2023-02-22T01:12:29;100453.72;;;6.80;100.00
61014;BME280;46899;47.542;19.082;2023-02-22T01:15:31;100448.06;;;7.06;100.00
61014;BME280;46899;47.542;19.082;2023-02-22T01:18:34;100440.59;;;7.34;100.00
61014;BME280;46899;47.542;19.082;2023-02-22T01:21:38;100443.13;;;7.37;100.00
61014;BME280;46899;47.542;19.082;2023-02-22T01:24:41;100445.59;;;7.43;100.00
61014;BME280;46899;47.542;19.082;2023-02-22T01:27:43;100443.66;;;7.52;100.00
61014;BME280;46899;47.542;19.082;2023-02-22T01:30:46;100442.84;;;7.49;100.00
61014;BME280;46899;47.542;19.082;2023-02-22T01:33:49;100449.59;;;7.56;100.00
61014;BME280;46899;47.542;19.082;2023-02-22T01:36:52;100443.50;;;7.58;100.00
61014;BME280;46899;47.542;19.082;2023-02-22T01:39:55;100440.19;;;7.53;100.00
61014;BME280;46899;47.542;19.082;2023-02-22T01:42:59;100435.12;;;7.47;100.00
61014;BME280;46899;47.542;19.082;2023-02-22T01:49:05;100429.75;;;7.58;100.00
61014;BME280;46899;47.542;19.082;2023-02-22T01:52:09;100432.22;;;7.63;100.00
61014;BME280;46899;47.542;19.082;2023-02-22T01:55:14;100433.97;;;7.62;100.00
61014;BME280;46899;47.542;19.082;2023-02-22T01:58:19;100428.88;;;7.57;100.00
61014;BME280;46899;47.542;19.082;2023-02-22T02:01:23;100429.66;;;7.61;100.00
61014;BME280;46899;47.542;19.082;2023-02-22T02:04:26;100440.91;;;7.60;100.00
61014;BME280;46899;47.542;19.082;2023-02-22T02:07:29;100422.91;;;7.54;100.00
61014;BME280;46899;47.542;19.082;2023-02-22T02:10:32;100423.69;;;7.57;100.00
61014;BME280;46899;47.542;19.082;2023-02-22T02:13:36;100420.25;;;7.57;100.00
61014;BME280;46899;47.542;19.082;2023-02-22T02:16:49;100427.81;;;7.68;100.00
61014;BME280;46899;47.542;19.082;2023-02-22T02:19:59;100419.72;;;7.81;100.00
61014;BME280;46899;47.542;19.082;2023-02-22T02:32:29;100418.97;;;7.76;100.00
61014;BME280;46899;47.542;19.082;2023-02-22T02:35:39;100422.44;;;7.75;100.00
61014;BME280;46899;47.542;19.082;2023-02-22T02:38:46;100423.72;;;7.56;100.00
61014;BME280;46899;47.542;19.082;2023-02-22T02:41:53;100426.66;;;7.41;100.00
61014;BME280;46899;47.542;19.082;2023-02-22T02:45:09;100425.69;;;7.45;100.00
61014;BME280;46899;47.542;19.082;2023-02-22T02:48:14;100430.81;;;7.48;100.00
61014;BME280;46899;47.542;19.082;2023-02-22T02:51:18;100429.94;;;7.47;100.00
61014;BME280;46899;47.542;19.082;2023-02-22T02:54:24;100419.53;;;7.50;100.00
61014;BME280;46899;47.542;19.082;2023-02-22T02:57:26;100433.25;;;7.55;100.00
61014;BME280;46899;47.542;19.082;2023-02-22T03:00:31;100426.03;;;7.70;100.00
61014;BME280;46899;47.542;19.082;2023-02-22T03:03:44;100430.66;;;7.54;100.00
61014;BME280;46899;47.542;19.082;2023-02-22T03:06:52;100425.62;;;7.48;100.00
61014;BME280;46899;47.542;19.082;2023-02-22T03:10:12;100438.41;;;7.55;100.00
61014;BME280;46899;47.542;19.082;2023-02-22T03:14:10;100428.16;;;7.51;100.00
61014;BME280;46899;47.542;19.082;2023-02-22T03:26:56;100426.22;;;7.61;100.00
61014;BME280;46899;47.542;19.082;2023-02-22T03:30:01;100417.44;;;7.68;100.00
61014;BME280;46899;47.542;19.082;2023-02-22T03:36:43;100426.78;;;7.75;100.00
61014;BME280;46899;47.542;19.082;2023-02-22T03:39:48;100431.44;;;7.97;100.00
61014;BME280;46899;47.542;19.082;2023-02-22T03:42:53;100433.75;;;8.08;100.00
61014;BME280;46899;47.542;19.082;2023-02-22T03:46:00;100429.38;;;8.11;100.00
61014;BME280;46899;47.542;19.082;2023-02-22T03:49:16;100437.03;;;8.16;100.00
61014;BME280;46899;47.542;19.082;2023-02-22T03:52:22;100426.63;;;8.17;100.00
61014;BME280;46899;47.542;19.082;2023-02-22T03:55:24;100443.87;;;8.18;100.00
61014;BME280;46899;47.542;19.082;2023-02-22T03:58:30;100441.16;;;8.26;100.00
61014;BME280;46899;47.542;19.082;2023-02-22T04:01:33;100446.22;;;8.29;100.00
61014;BME280;46899;47.542;19.082;2023-02-22T04:04:35;100449.81;;;8.23;100.00
61014;BME280;46899;47.542;19.082;2023-02-22T04:07:38;100455.06;;;8.20;100.00
61014;BME280;46899;47.542;19.082;2023-02-22T04:10:41;100457.75;;;8.16;100.00
61014;BME280;46899;47.542;19.082;2023-02-22T04:13:44;100457.00;;;8.12;100.00
61014;BME280;46899;47.542;19.082;2023-02-22T04:16:47;100455.22;;;8.14;100.00
61014;BME280;46899;47.542;19.082;2023-02-22T04:19:49;100457.75;;;8.16;100.00
61014;BME280;46899;47.542;19.082;2023-02-22T04:22:53;100459.59;;;8.11;100.00
61014;BME280;46899;47.542;19.082;2023-02-22T04:25:56;100452.09;;;8.00;100.00
61014;BME280;46899;47.542;19.082;2023-02-22T04:28:59;100460.25;;;7.84;100.00
61014;BME280;46899;47.542;19.082;2023-02-22T04:32:02;100456.09;;;7.75;100.00
61014;BME280;46899;47.542;19.082;2023-02-22T04:35:06;100459.97;;;7.56;100.00
61014;BME280;46899;47.542;19.082;2023-02-22T04:38:09;100456.66;;;7.51;100.00
61014;BME280;46899;47.542;19.082;2023-02-22T04:41:12;100456.66;;;7.49;100.00
61014;BME280;46899;47.542;19.082;2023-02-22T04:44:15;100450.59;;;7.50;100.00
61014;BME280;46899;47.542;19.082;2023-02-22T04:47:19;100450.00;;;7.38;100.00
61014;BME280;46899;47.542;19.082;2023-02-22T04:50:22;100452.72;;;7.32;100.00
61014;BME280;46899;47.542;19.082;2023-02-22T04:53:25;100457.75;;;7.38;100.00
61014;BME280;46899;47.542;19.082;2023-02-22T04:56:27;100455.22;;;7.35;100.00
61014;BME280;46899;47.542;19.082;2023-02-22T04:59:30;100458.00;;;7.26;100.00
61014;BME280;46899;47.542;19.082;2023-02-22T05:02:34;100456.38;;;7.22;100.00
61014;BME280;46899;47.542;19.082;2023-02-22T05:05:37;100458.09;;;7.23;100.00
61014;BME280;46899;47.542;19.082;2023-02-22T05:08:39;100464.25;;;7.16;100.00
61014;BME280;46899;47.542;19.082;2023-02-22T05:11:42;100463.87;;;7.34;100.00
61014;BME280;46899;47.542;19.082;2023-02-22T05:14:44;100454.44;;;7.31;100.00
61014;BME280;46899;47.542;19.082;2023-02-22T05:17:47;100460.44;;;7.33;100.00
61014;BME280;46899;47.542;19.082;2023-02-22T05:20:50;100473.53;;;7.27;100.00
61014;BME280;46899;47.542;19.082;2023-02-22T05:23:53;100471.84;;;7.25;100.00
61014;BME280;46899;47.542;19.082;2023-02-22T05:26:56;100469.44;;;7.14;100.00
61014;BME280;46899;47.542;19.082;2023-02-22T05:29:59;100481.75;;;7.03;100.00
61014;BME280;46899;47.542;19.082;2023-02-22T05:33:01;100474.09;;;6.97;100.00
61014;BME280;46899;47.542;19.082;2023-02-22T05:36:04;100482.09;;;6.85;100.00
61014;BME280;46899;47.542;19.082;2023-02-22T05:39:08;100484.69;;;6.83;100.00
61014;BME280;46899;47.542;19.082;2023-02-22T05:42:11;100481.09;;;6.90;100.00
61014;BME280;46899;47.542;19.082;2023-02-22T05:45:14;100488.63;;;7.03;100.00
61014;BME280;46899;47.542;19.082;2023-02-22T05:48:17;100490.34;;;7.04;100.00
61014;BME280;46899;47.542;19.082;2023-02-22T05:51:22;100494.72;;;7.02;100.00
61014;BME280;46899;47.542;19.082;2023-02-22T05:54:25;100504.31;;;6.94;100.00
61014;BME280;46899;47.542;19.082;2023-02-22T05:57:28;100512.72;;;7.06;100.00
61014;BME280;46899;47.542;19.082;2023-02-22T06:00:31;100520.47;;;7.08;100.00
61014;BME280;46899;47.542;19.082;2023-02-22T06:03:34;100529.03;;;7.11;100.00
61014;BME280;46899;47.542;19.082;2023-02-22T06:06:37;100528.78;;;7.23;100.00
61014;BME280;46899;47.542;19.082;2023-02-22T06:09:39;100534.56;;;7.37;100.00
61014;BME280;46899;47.542;19.082;2023-02-22T06:12:42;100532.63;;;7.47;100.00
61014;BME280;46899;47.542;19.082;2023-02-22T06:15:46;100531.69;;;7.52;100.00
61014;BME280;46899;47.542;19.082;2023-02-22T06:18:48;100535.81;;;7.61;100.00
61014;BME280;46899;47.542;19.082;2023-02-22T06:21:55;100534.97;;;7.61;100.00
61014;BME280;46899;47.542;19.082;2023-02-22T06:25:01;100540.81;;;7.70;100.00
61014;BME280;46899;47.542;19.082;2023-02-22T06:28:04;100541.50;;;7.78;100.00
61014;BME280;46899;47.542;19.082;2023-02-22T06:31:07;100550.56;;;8.00;100.00
61014;BME280;46899;47.542;19.082;2023-02-22T06:34:10;100541.38;;;8.24;100.00
61014;BME280;46899;47.542;19.082;2023-02-22T06:37:12;100558.06;;;8.51;100.00
61014;BME280;46899;47.542;19.082;2023-02-22T06:40:15;100554.03;;;8.76;100.00
61014;BME280;46899;47.542;19.082;2023-02-22T06:43:18;100557.25;;;8.85;100.00
61014;BME280;46899;47.542;19.082;2023-02-22T06:46:20;100545.59;;;9.00;100.00
61014;BME280;46899;47.542;19.082;2023-02-22T06:49:23;100555.69;;;9.12;100.00
61014;BME280;46899;47.542;19.082;2023-02-22T06:52:25;100557.31;;;9.48;98.49
61014;BME280;46899;47.542;19.082;2023-02-22T06:55:28;100554.91;;;9.41;99.35
61014;BME280;46899;47.542;19.082;2023-02-22T06:58:32;100560.78;;;9.49;99.41
61014;BME280;46899;47.542;19.082;2023-02-22T07:01:34;100555.53;;;9.81;96.93
61014;BME280;46899;47.542;19.082;2023-02-22T07:04:38;100566.88;;;10.08;94.83
61014;BME280;46899;47.542;19.082;2023-02-22T07:07:44;100563.00;;;10.50;92.43
61014;BME280;46899;47.542;19.082;2023-02-22T07:10:46;100560.25;;;11.56;85.22
61014;BME280;46899;47.542;19.082;2023-02-22T07:13:51;100567.41;;;12.44;79.54
61014;BME280;46899;47.542;19.082;2023-02-22T07:16:54;100566.88;;;13.41;73.58
61014;BME280;46899;47.542;19.082;2023-02-22T07:19:56;100559.37;;;15.19;65.60
61014;BME280;46899;47.542;19.082;2023-02-22T07:22:59;100567.59;;;17.48;55.09
61014;BME280;46899;47.542;19.082;2023-02-22T07:26:02;100566.00;;;17.90;52.82
61014;BME280;46899;47.542;19.082;2023-02-22T07:29:06;100559.50;;;16.78;55.63
61014;BME280;46899;47.542;19.082;2023-02-22T07:32:09;100560.13;;;15.88;59.05
61014;BME280;46899;47.542;19.082;2023-02-22T07:35:16;100564.12;;;15.79;60.63
61014;BME280;46899;47.542;19.082;2023-02-22T07:38:19;100563.34;;;15.77;60.10
61014;BME280;46899;47.542;19.082;2023-02-22T07:41:22;100552.19;;;15.05;62.86
61014;BME280;46899;47.542;19.082;2023-02-22T07:44:25;100559.78;;;16.11;59.29
61014;BME280;46899;47.542;19.082;2023-02-22T07:47:30;100563.09;;;15.82;59.10
61014;BME280;46899;47.542;19.082;2023-02-22T07:50:33;100569.28;;;14.78;63.79
61014;BME280;46899;47.542;19.082;2023-02-22T07:53:36;100558.94;;;14.39;66.45
61014;BME280;46899;47.542;19.082;2023-02-22T07:56:45;100552.75;;;15.12;64.04
61014;BME280;46899;47.542;19.082;2023-02-22T07:59:48;100559.53;;;15.16;62.56
61014;BME280;46899;47.542;19.082;2023-02-22T08:02:51;100565.28;;;14.71;64.58
61014;BME280;46899;47.542;19.082;2023-02-22T08:05:55;100562.63;;;15.58;61.76
61014;BME280;46899;47.542;19.082;2023-02-22T08:08:58;100561.22;;;16.16;59.60
61014;BME280;46899;47.542;19.082;2023-02-22T08:12:00;100562.59;;;15.75;60.69
61014;BME280;46899;47.542;19.082;2023-02-22T08:15:03;100559.13;;;15.90;59.87
61014;BME280;46899;47.542;19.082;2023-02-22T08:18:07;100564.22;;;14.92;62.75
61014;BME280;46899;47.542;19.082;2023-02-22T08:21:10;100564.09;;;14.59;65.82
61014;BME280;46899;47.542;19.082;2023-02-22T08:24:12;100563.44;;;15.41;62.44
61014;BME280;46899;47.542;19.082;2023-02-22T08:27:15;100560.84;;;15.41;61.49
61014;BME280;46899;47.542;19.082;2023-02-22T08:30:21;100566.22;;;14.14;67.33
61014;BME280;46899;47.542;19.082;2023-02-22T08:33:24;100567.91;;;13.57;69.72
61014;BME280;46899;47.542;19.082;2023-02-22T08:36:27;100566.75;;;13.24;71.99
61014;BME280;46899;47.542;19.082;2023-02-22T08:39:30;100565.31;;;13.37;72.05
61014;BME280;46899;47.542;19.082;2023-02-22T08:42:33;100576.59;;;13.18;73.04
61014;BME280;46899;47.542;19.082;2023-02-22T08:45:35;100566.06;;;12.77;74.36
61014;BME280;46899;47.542;19.082;2023-02-22T08:48:38;100562.37;;;13.25;73.06
61014;BME280;46899;47.542;19.082;2023-02-22T08:51:40;100566.16;;;13.58;71.64
61014;BME280;46899;47.542;19.082;2023-02-22T08:54:44;100566.91;;;13.80;69.68
61014;BME280;46899;47.542;19.082;2023-02-22T08:57:46;100572.28;;;13.57;71.03
61014;BME280;46899;47.542;19.082;2023-02-22T09:00:49;100564.22;;;13.82;70.22
61014;BME280;46899;47.542;19.082;2023-02-22T09:03:52;100575.97;;;13.92;69.12
61014;BME280;46899;47.542;19.082;2023-02-22T09:06:54;100572.37;;;13.94;68.76
61014;BME280;46899;47.542;19.082;2023-02-22T09:09:57;100574.69;;;13.82;69.78
61014;BME280;46899;47.542;19.082;2023-02-22T09:12:59;100574.50;;;14.23;68.36
61014;BME280;46899;47.542;19.082;2023-02-22T09:16:02;100578.75;;;14.26;67.21
61014;BME280;46899;47.542;19.082;2023-02-22T09:19:08;100576.00;;;14.10;68.36
61014;BME280;46899;47.542;19.082;2023-02-22T09:22:11;100578.66;;;14.09;67.68
61014;BME280;46899;47.542;19.082;2023-02-22T09:25:14;100567.84;;;13.98;68.13
61014;BME280;46899;47.542;19.082;2023-02-22T09:28:18;100568.84;;;14.14;67.49
61014;BME280;46899;47.542;19.082;2023-02-22T09:31:21;100571.88;;;14.05;67.40
61014;BME280;46899;47.542;19.082;2023-02-22T09:34:25;100559.56;;;14.25;67.12
61014;BME280;46899;47.542;19.082;2023-02-22T09:37:31;100566.78;;;14.39;66.62
61014;BME280;46899;47.542;19.082;2023-02-22T09:40:34;100565.09;;;14.19;67.20
61014;BME280;46899;47.542;19.082;2023-02-22T09:43:47;100561.22;;;14.82;64.96
61014;BME280;46899;47.542;19.082;2023-02-22T09:46:53;100560.34;;;14.82;64.78
61014;BME280;46899;47.542;19.082;2023-02-22T09:56:10;100562.69;;;14.52;66.61
61014;BME280;46899;47.542;19.082;2023-02-22T09:59:14;100558.91;;;14.93;65.25
61014;BME280;46899;47.542;19.082;2023-02-22T10:02:27;100557.91;;;15.30;63.89
61014;BME280;46899;47.542;19.082;2023-02-22T10:05:51;100551.09;;;15.45;63.10
61014;BME280;46899;47.542;19.082;2023-02-22T10:08:56;100550.91;;;15.81;61.67
61014;BME280;46899;47.542;19.082;2023-02-22T10:12:01;100557.75;;;15.67;61.95
61014;BME280;46899;47.542;19.082;2023-02-22T10:25:02;100545.19;;;15.23;62.81
61014;BME280;46899;47.542;19.082;2023-02-22T10:28:14;100536.09;;;15.13;62.87
61014;BME280;46899;47.542;19.082;2023-02-22T10:31:20;100537.91;;;15.62;61.42
61014;BME280;46899;47.542;19.082;2023-02-22T10:34:25;100534.97;;;15.68;61.59
61014;BME280;46899;47.542;19.082;2023-02-22T10:37:33;100535.25;;;15.79;60.29
61014;BME280;46899;47.542;19.082;2023-02-22T10:40:35;100530.88;;;15.95;60.15
61014;BME280;46899;47.542;19.082;2023-02-22T10:43:42;100530.97;;;15.94;60.38
61014;BME280;46899;47.542;19.082;2023-02-22T10:46:44;100529.38;;;15.58;60.38
61014;BME280;46899;47.542;19.082;2023-02-22T10:49:49;100526.53;;;15.46;60.57
61014;BME280;46899;47.542;19.082;2023-02-22T10:52:53;100523.38;;;15.72;59.76
61014;BME280;46899;47.542;19.082;2023-02-22T10:59:08;100523.25;;;15.41;60.84
61014;BME280;46899;47.542;19.082;2023-02-22T11:05:27;100514.19;;;14.79;62.94
61014;BME280;46899;47.542;19.082;2023-02-22T11:08:31;100502.81;;;14.80;64.06
61014;BME280;46899;47.542;19.082;2023-02-22T11:11:34;100510.50;;;15.00;62.99
61014;BME280;46899;47.542;19.082;2023-02-22T11:14:37;100511.53;;;14.45;65.59
61014;BME280;46899;47.542;19.082;2023-02-22T11:17:40;100503.97;;;14.92;63.91
61014;BME280;46899;47.542;19.082;2023-02-22T11:20:42;100506.50;;;14.93;63.96
61014;BME280;46899;47.542;19.082;2023-02-22T11:23:45;100505.41;;;15.32;63.54
61014;BME280;46899;47.542;19.082;2023-02-22T11:26:49;100499.50;;;15.44;61.18
61014;BME280;46899;47.542;19.082;2023-02-22T11:29:51;100501.44;;;15.40;61.48
61014;BME280;46899;47.542;19.082;2023-02-22T11:36:00;100495.09;;;14.94;62.83
61014;BME280;46899;47.542;19.082;2023-02-22T11:39:26;100495.09;;;14.94;62.84
61014;BME280;46899;47.542;19.082;2023-02-22T11:42:29;100492.16;;;15.00;62.12
61014;BME280;46899;47.542;19.082;2023-02-22T11:45:32;100495.25;;;14.74;63.47
61014;BME280;46899;47.542;19.082;2023-02-22T11:48:35;100492.00;;;14.86;64.06
61014;BME280;46899;47.542;19.082;2023-02-22T11:51:52;100493.63;;;15.06;63.61
61014;BME280;46899;47.542;19.082;2023-02-22T11:55:00;100492.94;;;14.85;64.60
61014;BME280;46899;47.542;19.082;2023-02-22T12:07:28;100490.31;;;14.14;67.90
61014;BME280;46899;47.542;19.082;2023-02-22T12:10:44;100496.00;;;14.05;68.50
61014;BME280;46899;47.542;19.082;2023-02-22T12:23:36;100480.28;;;14.05;67.93
61014;BME280;46899;47.542;19.082;2023-02-22T12:26:48;100476.06;;;14.57;66.47
61014;BME280;46899;47.542;19.082;2023-02-22T12:30:26;100473.00;;;14.83;65.29
61014;BME280;46899;47.542;19.082;2023-02-22T12:33:22;100475.97;;;14.58;64.88
61014;BME280;46899;47.542;19.082;2023-02-22T12:36:49;100471.72;;;14.56;65.91
61014;BME280;46899;47.542;19.082;2023-02-22T12:40:09;100465.81;;;14.69;65.18
61014;BME280;46899;47.542;19.082;2023-02-22T12:46:39;100454.09;;;14.93;63.83
61014;BME280;46899;47.542;19.082;2023-02-22T12:49:47;100456.03;;;15.07;63.35
61014;BME280;46899;47.542;19.082;2023-02-22T12:52:56;100466.03;;;15.16;62.76
61014;BME280;46899;47.542;19.082;2023-02-22T12:56:12;100455.28;;;14.88;63.47
61014;BME280;46899;47.542;19.082;2023-02-22T12:59:34;100452.88;;;14.83;64.80
61014;BME280;46899;47.542;19.082;2023-02-22T13:02:59;100451.19;;;14.82;64.75
61014;BME280;46899;47.542;19.082;2023-02-22T13:16:03;100442.41;;;14.66;66.38
61014;BME280;46899;47.542;19.082;2023-02-22T13:25:36;100440.72;;;14.48;66.92
61014;BME280;46899;47.542;19.082;2023-02-22T13:28:43;100439.75;;;14.49;67.15
61014;BME280;46899;47.542;19.082;2023-02-22T13:32:04;100446.28;;;14.05;68.49
61014;BME280;46899;47.542;19.082;2023-02-22T13:41:50;100440.31;;;14.20;67.70
61014;BME280;46899;47.542;19.082;2023-02-22T13:48:23;100440.28;;;14.03;68.61
61014;BME280;46899;47.542;19.082;2023-02-22T13:51:48;100438.16;;;13.73;69.57
61014;BME280;46899;47.542;19.082;2023-02-22T13:54:52;100435.41;;;13.77;69.94
61014;BME280;46899;47.542;19.082;2023-02-22T13:58:14;100436.97;;;13.81;69.33
61014;BME280;46899;47.542;19.082;2023-02-22T14:04:40;100440.34;;;13.83;69.75
61014;BME280;46899;47.542;19.082;2023-02-22T14:07:46;100434.53;;;13.78;70.29
61014;BME280;46899;47.542;19.082;2023-02-22T14:10:56;100439.44;;;13.84;71.00
61014;BME280;46899;47.542;19.082;2023-02-22T14:17:15;100432.66;;;13.80;70.95
61014;BME280;46899;47.542;19.082;2023-02-22T14:20:19;100435.34;;;13.78;71.00
61014;BME280;46899;47.542;19.082;2023-02-22T14:23:27;100437.25;;;13.75;71.35
61014;BME280;46899;47.542;19.082;2023-02-22T14:26:32;100435.28;;;13.42;72.74
61014;BME280;46899;47.542;19.082;2023-02-22T14:29:35;100435.84;;;13.49;72.20
61014;BME280;46899;47.542;19.082;2023-02-22T14:32:38;100431.25;;;13.35;73.45
61014;BME280;46899;47.542;19.082;2023-02-22T14:35:41;100433.13;;;13.13;74.84
61014;BME280;46899;47.542;19.082;2023-02-22T14:38:51;100437.22;;;13.19;75.21
61014;BME280;46899;47.542;19.082;2023-02-22T14:54:28;100425.78;;;13.01;77.52
61014;BME280;46899;47.542;19.082;2023-02-22T15:00:41;100423.94;;;13.03;78.62
61014;BME280;46899;47.542;19.082;2023-02-22T15:03:45;100425.28;;;12.93;79.01
61014;BME280;46899;47.542;19.082;2023-02-22T15:06:55;100435.44;;;12.99;78.57
61014;BME280;46899;47.542;19.082;2023-02-22T15:10:05;100425.44;;;12.88;79.56
61014;BME280;46899;47.542;19.082;2023-02-22T15:13:13;100433.16;;;12.91;78.79
61014;BME280;46899;47.542;19.082;2023-02-22T15:16:16;100431.31;;;12.93;76.70
61014;BME280;46899;47.542;19.082;2023-02-22T15:19:21;100417.81;;;12.84;77.02
61014;BME280;46899;47.542;19.082;2023-02-22T15:22:28;100420.69;;;12.78;76.00
61014;BME280;46899;47.542;19.082;2023-02-22T15:25:34;100417.44;;;12.73;75.68
61014;BME280;46899;47.542;19.082;2023-02-22T15:28:39;100420.13;;;12.71;74.87
61014;BME280;46899;47.542;19.082;2023-02-22T15:31:42;100421.69;;;12.55;75.06
61014;BME280;46899;47.542;19.082;2023-02-22T15:34:49;100419.38;;;12.48;75.08
61014;BME280;46899;47.542;19.082;2023-02-22T15:38:05;100426.63;;;12.41;75.31
61014;BME280;46899;47.542;19.082;2023-02-22T15:41:18;100419.34;;;12.27;75.56
61014;BME280;46899;47.542;19.082;2023-02-22T15:44:24;100420.31;;;12.25;75.83
61014;BME280;46899;47.542;19.082;2023-02-22T15:47:27;100415.44;;;12.37;74.54
61014;BME280;46899;47.542;19.082;2023-02-22T15:50:33;100417.72;;;12.25;75.08
61014;BME280;46899;47.542;19.082;2023-02-22T15:53:45;100421.31;;;12.01;76.88
61014;BME280;46899;47.542;19.082;2023-02-22T15:56:50;100412.09;;;11.92;76.52
61014;BME280;46899;47.542;19.082;2023-02-22T15:59:56;100418.53;;;11.84;77.23
61014;BME280;46899;47.542;19.082;2023-02-22T16:02:59;100413.66;;;11.75;78.00
61014;BME280;46899;47.542;19.082;2023-02-22T16:06:02;100414.16;;;11.61;78.36
61014;BME280;46899;47.542;19.082;2023-02-22T16:09:10;100417.41;;;11.66;78.10
61014;BME280;46899;47.542;19.082;2023-02-22T16:15:23;100415.78;;;11.63;79.19
61014;BME280;46899;47.542;19.082;2023-02-22T16:18:28;100412.25;;;11.43;80.13
61014;BME280;46899;47.542;19.082;2023-02-22T16:21:38;100422.38;;;11.27;81.97
61014;BME280;46899;47.542;19.082;2023-02-22T16:24:51;100421.78;;;11.21;82.91
61014;BME280;46899;47.542;19.082;2023-02-22T16:28:00;100420.50;;;11.08;83.80
61014;BME280;46899;47.542;19.082;2023-02-22T16:31:07;100423.78;;;11.13;83.74
61014;BME280;46899;47.542;19.082;2023-02-22T16:34:11;100429.09;;;11.10;83.24
61014;BME280;46899;47.542;19.082;2023-02-22T16:37:19;100429.31;;;11.04;83.30
61014;BME280;46899;47.542;19.082;2023-02-22T16:40:27;100436.91;;;11.10;83.09
61014;BME280;46899;47.542;19.082;2023-02-22T16:43:33;100440.75;;;10.99;83.55
61014;BME280;46899;47.542;19.082;2023-02-22T16:46:36;100435.84;;;10.90;84.46
61014;BME280;46899;47.542;19.082;2023-02-22T16:49:39;100443.87;;;10.84;85.84
61014;BME280;46899;47.542;19.082;2023-02-22T16:52:47;100442.31;;;10.80;86.79
61014;BME280;46899;47.542;19.082;2023-02-22T16:55:50;100447.81;;;10.71;86.77
61014;BME280;46899;47.542;19.082;2023-02-22T16:59:02;100443.72;;;10.89;84.69
61014;BME280;46899;47.542;19.082;2023-02-22T17:02:12;100442.31;;;10.80;85.04
61014;BME280;46899;47.542;19.082;2023-02-22T17:05:15;100444.41;;;10.69;85.81
61014;BME280;46899;47.542;19.082;2023-02-22T17:08:18;100449.75;;;10.65;86.17
61014;BME280;46899;47.542;19.082;2023-02-22T17:11:20;100455.19;;;10.59;87.49
61014;BME280;46899;47.542;19.082;2023-02-22T17:14:24;100457.31;;;10.46;88.20
61014;BME280;46899;47.542;19.082;2023-02-22T17:17:29;100452.53;;;10.34;88.82
61014;BME280;46899;47.542;19.082;2023-02-22T17:20:34;100451.22;;;10.21;89.67
61014;BME280;46899;47.542;19.082;2023-02-22T17:23:36;100456.72;;;10.12;90.21
61014;BME280;46899;47.542;19.082;2023-02-22T17:26:39;100451.81;;;10.01;90.79
61014;BME280;46899;47.542;19.082;2023-02-22T17:29:42;100460.03;;;9.88;91.67
61014;BME280;46899;47.542;19.082;2023-02-22T17:32:49;100454.41;;;9.74;92.87
61014;BME280;46899;47.542;19.082;2023-02-22T17:35:53;100464.22;;;9.64;93.98
61014;BME280;46899;47.542;19.082;2023-02-22T17:38:58;100458.41;;;9.56;95.68
61014;BME280;46899;47.542;19.082;2023-02-22T17:42:01;100454.75;;;9.63;95.57
61014;BME280;46899;47.542;19.082;2023-02-22T17:45:03;100445.38;;;9.57;96.21
61014;BME280;46899;47.542;19.082;2023-02-22T17:48:07;100455.62;;;9.62;94.02
61014;BME280;46899;47.542;19.082;2023-02-22T17:51:11;100461.59;;;9.66;93.20
61014;BME280;46899;47.542;19.082;2023-02-22T17:54:16;100462.78;;;9.54;93.44
61014;BME280;46899;47.542;19.082;2023-02-22T17:57:22;100458.84;;;9.41;95.33
61014;BME280;46899;47.542;19.082;2023-02-22T18:00:27;100459.19;;;9.29;94.87
61014;BME280;46899;47.542;19.082;2023-02-22T18:03:37;100454.13;;;9.24;95.54